Aviation Digital Data Service (ADDS)

Output produced by METARs form (1204 UTC 22 March 2019)
found at http://www.aviationweather.gov/metar/data/
 
Forecast for: VTCH (MAE HONG SON/MUA, TH)
Text: TAF VTCH 221100Z 2212/2312 21005KT 4000 HZ FEW030
Forecast period: 1200 to 2100 UTC 22 March 2019
Forecast type: FROM: standard forecast or significant change
Winds: from the SSW (210 degrees) at 6 MPH (5 knots; 2.6 m/s)
Visibility: 2.49 miles (4.01 km)
Ceiling: at least 12,000 feet AGL
Clouds: few clouds at 3000 feet AGL
Weather: HZ  (haze)
Text: BECMG 2221/2223 2000 BR
Forecast period: 2100 UTC 22 March 2019 to 0100 UTC 23 March 2019
Forecast type: BECOMING: Conditions expected to become as follows by 2300 UTC 22 March 2019
Winds: from the SSW (210 degrees) at 6 MPH (5 knots; 2.6 m/s)
Visibility: 1.24 miles (2.00 km)
Ceiling: at least 12,000 feet AGL
Clouds: few clouds at 3000 feet AGL
Weather: BR  (mist)
Text: BECMG 2301/2303 6000 NSW
Forecast period: 0100 to 1200 UTC 23 March 2019
Forecast type: BECOMING: Conditions expected to become as follows by 0300 UTC 23 March 2019
Winds: from the SSW (210 degrees) at 6 MPH (5 knots; 2.6 m/s)
Visibility: 4 miles (6 km)
Ceiling: at least 12,000 feet AGL
Clouds: few clouds at 3000 feet AGL
Weather: NSW  (no significant weather)